Time;durP1;ratioP1;P1;durP2;ratioP2;P2;SDS_P1;SDS_P2;PMS_P1;PMS_P2;Temp;Humidity;BMP_temperature;BMP_pressure;BME280_temperature;BME280_humidity;BME280_pressure;Samples;Min_cycle;Max_cycle;Signal;HPM_P1;HPM_P2
2022/04/02 00:02:04;;;;;;;5.65;3.30;;;;;;;1.09;87.49;101403.28;5053026;28;20452;-81
2022/04/02 00:04:30;;;;;;;6.97;3.90;;;;;;;0.96;87.31;101397.50;5034694;28;20017;-81
2022/04/02 00:10:17;;;;;;;8.50;3.45;;;;;;;1.21;86.43;101412.75;5052710;28;20047;-81
2022/04/02 00:16:05;;;;;;;7.05;3.83;;;;;;;1.17;87.09;101410.53;5052859;28;20047;-80
2022/04/02 00:18:31;;;;;;;5.28;2.65;;;;;;;1.29;85.54;101414.66;5055633;28;20379;-81
2022/04/02 00:24:18;;;;;;;8.43;4.20;;;;;;;1.16;85.41;101406.22;5052701;28;20036;-83
2022/04/02 00:30:05;;;;;;;6.30;3.63;;;;;;;1.32;84.93;101419.66;5055522;28;20131;-82
2022/04/02 00:35:53;;;;;;;7.25;2.88;;;;;;;1.21;83.44;101390.84;5052607;28;20064;-82
2022/04/02 00:41:40;;;;;;;6.65;4.22;;;;;;;1.35;83.76;101406.19;5052291;28;20051;-84
2022/04/02 00:47:27;;;;;;;7.22;3.28;;;;;;;1.21;84.71;101412.75;5052318;28;20463;-81
2022/04/02 00:49:53;;;;;;;4.18;3.00;;;;;;;1.19;84.84;101414.69;5055001;28;20037;-82
2022/04/02 00:55:45;;;;;;;5.70;3.28;;;;;;;1.07;85.33;101399.13;5051892;28;20059;-81
2022/04/02 01:01:32;;;;;;;6.38;2.53;;;;;;;1.05;86.18;101391.38;5054831;28;20063;-81
2022/04/02 01:07:19;;;;;;;7.43;3.40;;;;;;;1.06;86.02;101410.66;5051881;28;20060;-80
2022/04/02 01:13:08;;;;;;;4.45;2.35;;;;;;;1.14;85.35;101416.03;5051916;28;20511;-80
2022/04/02 01:18:55;;;;;;;5.93;3.20;;;;;;;1.33;83.20;101415.22;5051951;28;20055;-78
2022/04/02 01:24:42;;;;;;;3.30;2.25;;;;;;;1.26;83.06;101414.13;5052115;28;20048;-77
2022/04/02 01:27:08;;;;;;;6.40;3.35;;;;;;;1.13;84.28;101407.31;5054576;28;20049;-77
2022/04/02 01:32:55;;;;;;;5.65;3.00;;;;;;;1.24;82.50;101401.09;5054884;28;20139;-78
2022/04/02 01:38:43;;;;;;;6.95;2.83;;;;;;;1.23;81.80;101415.22;5051868;28;20091;-77
2022/04/02 01:44:30;;;;;;;5.63;2.65;;;;;;;1.21;81.87;101407.47;5051826;28;20100;-80
2022/04/02 02:00:20;;;;;;;4.90;2.97;;;;;;;1.00;82.58;101411.19;5051290;28;20039;-82
2022/04/02 02:06:07;;;;;;;6.22;3.15;;;;;;;0.87;84.08;101429.91;5051317;28;20095;-82
2022/04/02 02:11:54;;;;;;;6.35;3.20;;;;;;;0.78;85.12;101413.13;5051230;28;20437;-83
2022/04/02 02:17:41;;;;;;;6.13;3.17;;;;;;;0.70;84.93;101418.22;5051159;28;20051;-82
2022/04/02 02:23:27;;;;;;;3.33;2.50;;;;;;;0.80;85.02;101432.22;5050990;28;20146;-82
2022/04/02 02:25:53;;;;;;;4.68;2.88;;;;;;;0.82;83.45;101421.56;5053682;28;20061;-83
2022/04/02 02:28:18;;;;;;;5.13;2.88;;;;;;;0.77;83.65;101429.03;5050598;28;20041;-83
2022/04/02 02:40:12;;;;;;;7.15;3.03;;;;;;;0.84;82.25;101444.16;5050956;28;20655;-81
2022/04/02 02:45:59;;;;;;;3.60;2.70;;;;;;;0.98;81.29;101437.66;5050679;28;20048;-79
2022/04/02 02:51:46;;;;;;;3.50;2.70;;;;;;;0.87;81.47;101441.28;5051016;28;20087;-81
2022/04/02 02:57:40;;;;;;;5.13;2.50;;;;;;;0.78;81.79;101451.75;5050570;28;20039;-81
2022/04/02 03:03:27;;;;;;;4.97;3.15;;;;;;;0.70;80.86;101439.28;5054218;28;20397;-79
2022/04/02 03:09:14;;;;;;;4.10;3.10;;;;;;;0.72;81.93;101441.78;5053592;28;20059;-78
2022/04/02 03:15:01;;;;;;;4.28;2.20;;;;;;;0.70;82.26;101449.81;5054012;28;20072;-79
2022/04/02 03:17:29;;;;;;;3.25;2.25;;;;;;;0.68;82.68;101435.97;5056526;28;20049;-80
2022/04/02 03:19:55;;;;;;;9.20;3.25;;;;;;;0.79;82.08;101446.34;5035573;28;20024;-78
2022/04/02 03:25:41;;;;;;;5.20;3.00;;;;;;;0.56;84.78;101450.16;5053922;28;20052;-81
2022/04/02 03:31:28;;;;;;;3.85;2.92;;;;;;;0.27;86.00;101448.28;5053651;28;20108;-78
2022/04/02 03:37:15;;;;;;;4.15;3.05;;;;;;;0.22;87.24;101458.34;5053340;28;20044;-79
2022/04/02 03:43:03;;;;;;;4.97;2.97;;;;;;;0.12;87.84;101452.25;5053394;28;20072;-77
2022/04/02 03:48:50;;;;;;;5.88;3.90;;;;;;;0.02;89.03;101468.94;5053164;28;20048;-78
2022/04/02 03:54:38;;;;;;;5.13;3.50;;;;;;;0.01;88.93;101456.75;5053455;28;20378;-79
2022/04/02 03:57:05;;;;;;;3.83;2.80;;;;;;;0.03;88.88;101454.81;5055710;28;20095;-80
2022/04/02 04:02:52;;;;;;;5.45;2.22;;;;;;;0.24;87.34;101472.22;5053149;28;20135;-78
2022/04/02 04:08:40;;;;;;;4.38;2.88;;;;;;;0.27;87.30;101479.81;5052672;28;20106;-78
2022/04/02 04:14:27;;;;;;;3.88;2.42;;;;;;;0.39;86.46;101485.03;5052435;28;20125;-79
2022/04/02 04:20:14;;;;;;;5.05;3.15;;;;;;;0.42;86.66;101482.97;5052772;28;20091;-80
2022/04/02 04:22:39;;;;;;;5.32;2.78;;;;;;;0.31;86.37;101483.06;5055439;28;20040;-79
2022/04/02 04:28:26;;;;;;;7.78;3.25;;;;;;;0.30;87.15;101490.13;5052700;28;20404;-79
2022/04/02 04:34:13;;;;;;;7.70;3.42;;;;;;;0.33;86.23;101475.03;5052587;28;20098;-80
2022/04/02 04:40:00;;;;;;;5.35;3.40;;;;;;;0.28;86.59;101481.50;5052648;28;20085;-79
2022/04/02 04:45:46;;;;;;;4.57;2.70;;;;;;;0.30;86.00;101487.47;5052451;28;20062;-78
2022/04/02 04:51:34;;;;;;;4.43;2.92;;;;;;;0.35;85.78;101502.03;5052036;28;20040;-78
2022/04/02 04:53:59;;;;;;;5.43;1.98;;;;;;;0.32;85.46;101512.81;5054924;28;20052;-79
2022/04/02 04:59:46;;;;;;;5.65;2.70;;;;;;;0.34;83.98;101510.88;5053905;28;20090;-78
2022/04/02 05:05:33;;;;;;;4.97;2.83;;;;;;;0.43;83.38;101517.97;5052525;28;20071;-79
2022/04/02 05:11:21;;;;;;;3.67;2.35;;;;;;;0.43;82.59;101525.88;5052686;28;20140;-80
2022/04/02 05:17:16;;;;;;;3.28;2.20;;;;;;;0.53;82.70;101534.63;5051861;28;20339;-78
2022/04/02 05:23:04;;;;;;;3.22;2.20;;;;;;;0.40;83.93;101542.75;5051893;28;20110;-79
2022/04/02 05:28:54;;;;;;;8.35;3.67;;;;;;;0.33;84.05;101546.03;5051412;28;20075;-77
2022/04/02 05:34:41;;;;;;;6.72;2.30;;;;;;;0.48;83.37;101558.72;5051584;28;20170;-78
2022/04/02 05:40:28;;;;;;;4.25;2.65;;;;;;;0.49;84.34;101564.81;5051827;28;20044;-77
2022/04/02 05:46:16;;;;;;;4.97;2.33;;;;;;;0.62;83.74;101583.84;5051670;28;20103;-79
2022/04/02 05:52:04;;;;;;;4.22;2.60;;;;;;;0.63;84.00;101582.06;5051512;28;20051;-76
2022/04/02 05:57:52;;;;;;;3.60;2.20;;;;;;;0.64;83.95;101583.72;5051399;28;20144;-77
2022/04/02 06:03:39;;;;;;;5.47;2.85;;;;;;;0.68;85.04;101595.66;5051291;28;20123;-79
2022/04/02 06:06:06;;;;;;;7.28;3.10;;;;;;;0.78;83.94;101599.16;5053904;28;20401;-77
2022/04/02 06:11:53;;;;;;;4.80;2.75;;;;;;;0.89;83.95;101604.34;5054054;28;20093;-77
2022/04/02 06:17:39;;;;;;;6.28;2.92;;;;;;;1.03;83.33;101605.78;5050875;28;20095;-78
2022/04/02 06:23:26;;;;;;;5.82;2.67;;;;;;;1.25;83.18;101629.28;5051457;28;20043;-77
2022/04/02 06:25:52;;;;;;;5.43;2.45;;;;;;;1.32;83.24;101621.66;5036130;28;20037;-79
2022/04/02 06:31:39;;;;;;;3.30;2.30;;;;;;;1.42;82.51;101625.97;5050897;28;20133;-78
2022/04/02 06:37:32;;;;;;;7.97;3.28;;;;;;;1.64;81.55;101632.81;5053515;28;20163;-78
2022/04/02 06:43:20;;;;;;;6.30;2.67;;;;;;;1.90;80.50;101645.50;5054494;28;20048;-81
2022/04/02 06:49:07;;;;;;;4.65;2.95;;;;;;;2.02;79.56;101644.38;5054150;28;20448;-80
2022/04/02 06:54:54;;;;;;;7.95;3.10;;;;;;;2.27;79.19;101658.81;5054172;28;20090;-80
2022/04/02 06:57:23;;;;;;;3.75;2.80;;;;;;;2.29;79.20;101638.38;5056723;28;20127;-80
2022/04/02 07:03:10;;;;;;;4.78;2.13;;;;;;;2.86;77.55;101663.00;5055385;28;20449;-79
2022/04/02 07:08:57;;;;;;;3.90;2.88;;;;;;;3.22;75.38;101675.44;5053740;28;20040;-77
2022/04/02 07:14:49;;;;;;;4.18;2.08;;;;;;;3.50;73.40;101670.16;5053650;28;20450;-79
2022/04/02 07:17:15;;;;;;;4.00;2.25;;;;;;;3.49;72.20;101631.47;5038701;28;20040;-79
2022/04/02 07:23:04;;;;;;;7.95;2.97;;;;;;;4.13;69.48;101699.25;5054050;28;20088;-80
2022/04/02 07:36:10;;;;;;;4.47;2.85;;;;;;;5.28;65.36;101650.41;5053618;28;20067;-79
2022/04/02 07:47:25;;;;;;;4.47;2.58;;;;;;;7.12;57.96;101653.50;5073322;28;20047;-80
2022/04/02 07:56:37;;;;;;;2.85;2.05;;;;;;;8.01;55.42;101720.63;5073374;28;20555;-78
2022/04/02 08:09:18;;;;;;;4.40;2.63;;;;;;;9.88;49.18;101724.19;5010950;28;20575;-81
2022/04/02 08:21:58;;;;;;;5.60;3.67;;;;;;;8.38;48.99;101678.13;5072713;28;20051;-80
2022/04/02 08:31:33;;;;;;;4.93;2.60;;;;;;;9.53;49.73;101728.47;5072933;28;20546;-80
2022/04/02 08:37:38;;;;;;;6.85;3.75;;;;;;;8.22;50.86;101746.63;4987163;28;20049;-80
2022/04/02 08:43:47;;;;;;;6.40;3.72;;;;;;;7.44;53.33;101742.16;5053232;28;20043;-81
2022/04/02 08:49:40;;;;;;;8.32;3.33;;;;;;;7.63;54.98;101749.75;5052947;28;20044;-81
2022/04/02 08:55:44;;;;;;;7.05;3.78;;;;;;;6.34;58.14;101764.00;5053221;28;20060;-83
2022/04/02 09:01:39;;;;;;;4.47;2.85;;;;;;;5.73;60.61;101752.69;5052900;28;20090;-80
2022/04/02 09:07:48;;;;;;;6.07;3.55;;;;;;;5.67;61.81;101787.81;5052410;28;20048;-82
2022/04/02 09:14:32;;;;;;;7.63;3.20;;;;;;;5.81;61.45;101787.22;5052809;28;20563;-82
2022/04/02 09:17:29;;;;;;;5.40;3.28;;;;;;;5.31;61.32;101746.53;4971075;28;20047;-81
2022/04/02 09:23:43;;;;;;;5.75;3.75;;;;;;;6.32;60.87;101788.06;4971660;28;20073;-81
2022/04/02 09:29:57;;;;;;;5.40;3.38;;;;;;;6.37;58.07;101727.34;4971022;28;20162;-82
2022/04/02 09:53:37;;;;;;;7.20;4.40;;;;;;;6.10;57.22;101805.47;5052580;28;20120;-85
2022/04/02 10:12:53;;;;;;;4.85;3.58;;;;;;;7.15;54.67;101758.69;5052679;28;20071;-80
2022/04/02 10:18:41;;;;;;;6.93;3.80;;;;;;;5.75;59.76;101797.63;5056326;28;20087;-80
2022/04/02 10:31:33;;;;;;;6.78;4.00;;;;;;;4.95;60.40;101796.97;4973103;28;20048;-83
2022/04/02 10:37:30;;;;;;;6.90;3.85;;;;;;;5.00;62.18;101772.66;5054881;28;20110;-80
2022/04/02 10:43:24;;;;;;;10.30;3.53;;;;;;;5.33;62.91;101779.00;5055248;28;20082;-84
2022/04/02 10:50:04;;;;;;;5.47;3.50;;;;;;;4.86;62.68;101758.97;5054987;28;20500;-84
2022/04/02 11:02:49;;;;;;;5.78;3.63;;;;;;;4.12;65.40;101730.19;4916107;29;20065;-80
2022/04/02 11:08:37;;;;;;;8.93;3.45;;;;;;;4.91;63.00;101790.28;4982611;28;20458;-80
2022/04/02 11:14:24;;;;;;;5.43;3.10;;;;;;;5.43;60.44;101793.81;5054607;28;20044;-76
2022/04/02 11:20:23;;;;;;;4.53;2.85;;;;;;;6.09;58.10;101781.72;5055009;28;20036;-78
2022/04/02 11:26:12;;;;;;;7.82;3.60;;;;;;;7.49;52.48;101781.56;5054603;28;20086;-80
2022/04/02 11:32:01;;;;;;;6.50;3.50;;;;;;;7.29;52.24;101779.31;5054275;28;20052;-79
2022/04/02 11:38:20;;;;;;;3.83;2.92;;;;;;;6.16;51.70;101780.06;5054074;28;20083;-82
2022/04/02 11:50:26;;;;;;;6.78;2.83;;;;;;;7.19;49.38;101789.28;5053627;28;20098;-80
2022/04/02 11:56:34;;;;;;;2.75;2.38;;;;;;;7.98;46.76;101791.03;5054137;28;20091;-80
2022/04/02 12:02:41;;;;;;;4.30;2.80;;;;;;;7.60;44.88;101800.69;5054069;28;20047;-81
2022/04/02 12:11:51;;;;;;;4.32;2.25;;;;;;;6.93;45.39;101808.06;5053751;28;20466;-80
2022/04/02 12:17:39;;;;;;;4.38;2.63;;;;;;;8.37;43.61;101791.00;5053762;28;20549;-81
2022/04/02 12:23:27;;;;;;;6.65;2.78;;;;;;;10.03;41.54;101777.59;5053684;28;20043;-83
2022/04/02 12:29:18;;;;;;;4.32;2.20;;;;;;;10.12;41.91;101766.63;5053538;28;20052;-83
2022/04/02 12:35:09;;;;;;;2.50;1.88;;;;;;;9.49;39.33;101772.56;5052590;28;20404;-83
2022/04/02 12:37:51;;;;;;;4.15;2.33;;;;;;;8.64;40.68;101794.19;5052574;28;20049;-87
2022/04/02 12:43:38;;;;;;;3.83;1.90;;;;;;;9.41;40.26;101788.69;5053465;28;20464;-86
2022/04/02 12:49:30;;;;;;;4.22;2.20;;;;;;;8.52;39.03;101780.44;5053411;28;20443;-84
2022/04/02 12:55:37;;;;;;;4.30;2.35;;;;;;;7.09;41.47;101799.25;5054246;28;20059;-88
2022/04/02 13:01:33;;;;;;;2.05;1.73;;;;;;;7.18;45.67;101800.06;5053453;28;20048;-86
2022/04/02 13:07:21;;;;;;;4.10;1.95;;;;;;;6.88;44.82;101788.31;5053001;28;20147;-81
2022/04/02 13:13:12;;;;;;;3.05;2.60;;;;;;;6.89;44.46;101787.31;5052751;28;20372;-82
2022/04/02 13:15:38;;;;;;;4.55;2.33;;;;;;;7.05;45.00;101787.31;5051303;28;20043;-81
2022/04/02 13:21:36;;;;;;;3.20;2.53;;;;;;;9.58;39.67;101777.66;5052074;28;20047;-82
2022/04/02 13:27:31;;;;;;;3.75;2.13;;;;;;;8.65;43.18;101803.84;5051835;28;20082;-82
2022/04/02 13:30:06;;;;;;;5.97;3.38;;;;;;;7.89;47.19;101796.59;5051406;28;20075;-82
2022/04/02 13:36:03;;;;;;;3.60;1.77;;;;;;;7.21;49.96;101797.06;5051451;28;20288;-77
2022/04/02 13:41:52;;;;;;;2.22;2.03;;;;;;;7.23;50.87;101800.41;5051423;28;20120;-78
2022/04/02 13:48:01;;;;;;;3.60;2.25;;;;;;;7.33;51.65;101793.91;5051484;28;20044;-80
2022/04/02 13:54:04;;;;;;;2.40;2.05;;;;;;;7.54;48.64;101801.38;5051535;28;20496;-78
2022/04/02 14:00:07;;;;;;;3.70;2.50;;;;;;;7.94;46.32;101799.56;5051370;28;20041;-79
2022/04/02 14:06:06;;;;;;;5.15;2.70;;;;;;;7.03;46.96;101805.25;5051113;28;20134;-79
2022/04/02 14:11:59;;;;;;;4.88;2.75;;;;;;;7.38;50.33;101807.53;5051561;28;20135;-78
2022/04/02 14:17:48;;;;;;;5.00;2.80;;;;;;;7.23;50.88;101816.34;5051404;28;20136;-76
2022/04/02 14:24:03;;;;;;;2.63;2.40;;;;;;;7.42;51.63;101814.19;5051310;28;20117;-80
2022/04/02 14:30:14;;;;;;;2.22;1.70;;;;;;;7.24;49.99;101805.59;5051005;28;20103;-76
2022/04/02 14:36:26;;;;;;;6.53;2.03;;;;;;;7.31;49.90;101803.06;5050723;28;20048;-78
2022/04/02 14:42:39;;;;;;;4.15;2.63;;;;;;;7.66;48.15;101794.66;5050957;28;20390;-77
2022/04/02 14:52:11;;;;;;;3.00;2.10;;;;;;;7.83;46.83;101810.59;5050934;28;20090;-78
2022/04/02 14:58:19;;;;;;;3.25;2.00;;;;;;;7.42;48.71;101813.34;5052693;28;20536;-77
2022/04/02 15:04:27;;;;;;;2.80;2.30;;;;;;;6.85;48.57;101813.38;5054221;28;20397;-75
2022/04/02 15:10:27;;;;;;;3.83;2.60;;;;;;;6.24;49.02;101811.97;5049246;28;20587;-78
2022/04/02 15:16:25;;;;;;;3.60;2.50;;;;;;;5.72;51.01;101812.03;5053720;28;20578;-77
2022/04/02 15:22:22;;;;;;;3.97;2.38;;;;;;;5.86;50.64;101822.09;5053306;28;20521;-76
2022/04/02 15:28:16;;;;;;;3.35;2.42;;;;;;;5.94;54.33;101841.72;5053810;28;20110;-79
2022/04/02 15:34:14;;;;;;;4.38;2.20;;;;;;;5.64;60.06;101843.84;5054078;28;20052;-77
2022/04/02 15:40:21;;;;;;;3.78;2.40;;;;;;;5.43;61.66;101853.97;5054124;28;20044;-79
2022/04/02 15:46:50;;;;;;;2.83;1.90;;;;;;;5.04;63.48;101856.19;5054268;28;20102;-77
2022/04/02 15:52:38;;;;;;;4.00;2.58;;;;;;;4.77;66.33;101878.28;5054060;28;20083;-78
2022/04/02 15:58:29;;;;;;;3.28;2.45;;;;;;;4.75;68.16;101874.97;5053903;28;20409;-77
2022/04/02 16:04:18;;;;;;;4.63;2.50;;;;;;;4.93;67.76;101875.81;5053792;28;20047;-77
2022/04/02 16:10:11;;;;;;;3.67;2.58;;;;;;;5.23;67.52;101885.19;5053425;28;20572;-77
2022/04/02 16:12:38;;;;;;;4.38;2.78;;;;;;;5.21;66.53;101869.44;5052488;28;20052;-76
2022/04/02 16:18:28;;;;;;;4.65;2.30;;;;;;;5.44;66.05;101876.88;5053576;28;20106;-76
2022/04/02 16:24:15;;;;;;;3.35;2.72;;;;;;;5.45;65.48;101882.00;5053661;28;20051;-77
2022/04/02 16:30:10;;;;;;;2.63;2.33;;;;;;;5.36;64.69;101887.41;5053078;28;20056;-77
2022/04/02 16:36:08;;;;;;;3.67;1.98;;;;;;;5.44;60.40;101890.13;5052809;28;20549;-79
2022/04/02 16:42:07;;;;;;;5.75;2.78;;;;;;;5.13;61.55;101905.63;5053350;28;20055;-79
2022/04/02 16:48:00;;;;;;;4.38;3.40;;;;;;;4.84;63.06;101897.88;5053229;28;20095;-78
2022/04/02 16:53:53;;;;;;;5.45;2.65;;;;;;;4.78;63.96;101907.28;5052988;28;20091;-77
2022/04/02 16:59:42;;;;;;;7.47;2.78;;;;;;;4.64;64.96;101908.63;5052924;28;20056;-78
2022/04/02 17:05:38;;;;;;;6.63;2.50;;;;;;;4.62;65.81;101909.72;5052804;28;20079;-76
2022/04/02 17:11:41;;;;;;;5.40;2.63;;;;;;;4.40;67.58;101908.34;5052768;28;20405;-75
2022/04/02 17:14:10;;;;;;;3.97;2.58;;;;;;;4.29;68.99;101916.47;5034089;28;20141;-78
2022/04/02 17:19:59;;;;;;;11.73;4.65;;;;;;;4.09;70.34;101912.25;5052114;28;20075;-76
2022/04/02 17:25:46;;;;;;;4.63;2.90;;;;;;;3.93;72.80;101926.91;5051640;28;20512;-75
2022/04/02 17:31:34;;;;;;;4.68;2.97;;;;;;;4.19;70.66;101935.06;5050901;28;20413;-76
2022/04/02 17:37:28;;;;;;;4.40;2.00;;;;;;;4.30;68.45;101936.66;5052349;28;20114;-78
2022/04/02 17:43:15;;;;;;;4.00;2.10;;;;;;;4.34;64.26;101946.84;5052531;28;20412;-74
2022/04/02 17:49:03;;;;;;;4.15;2.33;;;;;;;4.25;60.61;101946.88;5052445;28;20071;-80
2022/04/02 17:54:50;;;;;;;5.68;2.25;;;;;;;4.24;60.40;101946.03;5052031;28;20043;-78
2022/04/02 18:00:39;;;;;;;4.97;2.40;;;;;;;4.16;60.58;101953.88;5052318;28;20507;-78
2022/04/02 18:06:29;;;;;;;4.22;2.38;;;;;;;4.12;60.71;101972.84;5051690;28;20044;-80
2022/04/02 18:12:50;;;;;;;3.58;2.13;;;;;;;4.08;63.02;101992.63;5051749;28;20052;-79
2022/04/02 18:15:19;;;;;;;3.15;2.05;;;;;;;3.85;63.04;101955.91;5050429;28;20123;-80
2022/04/02 18:21:06;;;;;;;4.65;2.17;;;;;;;3.81;64.26;101988.91;5053308;28;20441;-80
2022/04/02 18:26:54;;;;;;;3.35;1.85;;;;;;;3.79;65.41;101998.81;5053205;28;20095;-80
2022/04/02 18:32:41;;;;;;;5.20;2.20;;;;;;;3.55;67.25;102001.03;5053461;28;20048;-78
2022/04/02 18:38:28;;;;;;;3.38;1.92;;;;;;;3.48;67.50;101999.94;5055024;28;20110;-76
2022/04/02 18:44:15;;;;;;;3.58;2.25;;;;;;;3.48;65.22;102006.06;5054866;28;20072;-77
2022/04/02 18:50:04;;;;;;;1.88;1.50;;;;;;;3.65;64.20;102021.22;5054146;28;20555;-75
2022/04/02 18:55:50;;;;;;;5.30;2.13;;;;;;;3.62;65.34;102029.44;5054449;28;20048;-76
2022/04/02 18:58:19;;;;;;;3.13;2.20;;;;;;;3.57;66.41;102031.66;5035397;28;20477;-74
2022/04/02 19:04:06;;;;;;;4.28;2.85;;;;;;;3.53;68.23;102032.09;5050658;28;20048;-74
2022/04/02 19:09:58;;;;;;;3.45;2.47;;;;;;;3.37;69.43;102046.66;5053779;28;20075;-79
2022/04/02 19:12:23;;;;;;;4.72;2.85;;;;;;;3.22;69.53;102037.47;5053590;28;20041;-78
2022/04/02 19:14:49;;;;;;;2.78;2.38;;;;;;;3.23;70.71;102049.72;5035783;28;20067;-78
2022/04/02 19:20:35;;;;;;;6.60;3.47;;;;;;;2.92;72.49;102053.41;5053749;28;20067;-76
2022/04/02 19:26:35;;;;;;;5.03;2.97;;;;;;;2.45;73.65;102043.31;5053347;28;20086;-77
2022/04/02 19:29:02;;;;;;;4.75;3.22;;;;;;;2.47;74.97;102061.66;5052805;28;20036;-76
2022/04/02 19:34:49;;;;;;;8.10;4.47;;;;;;;2.29;75.26;102071.13;5053629;28;20048;-78
2022/04/02 19:40:37;;;;;;;10.95;4.05;;;;;;;2.28;73.48;102078.22;5053131;28;20500;-76
2022/04/02 19:46:26;;;;;;;5.97;2.88;;;;;;;2.16;71.42;102089.81;5053602;28;20040;-77
2022/04/02 19:52:13;;;;;;;4.45;2.45;;;;;;;2.09;71.08;102100.06;5053147;28;20079;-77
2022/04/02 20:02:11;;;;;;;46.88;24.80;;;;;;;1.66;73.29;102107.16;5053191;28;20450;-77
2022/04/02 20:07:58;;;;;;;4.38;3.47;;;;;;;1.60;72.80;102105.88;5053008;28;20047;-78
2022/04/02 20:13:46;;;;;;;5.25;3.38;;;;;;;1.47;73.12;102103.41;5053072;28;20406;-77
2022/04/02 20:19:33;;;;;;;4.03;3.00;;;;;;;1.40;71.71;102107.47;5052888;28;20516;-76
2022/04/02 20:25:20;;;;;;;4.68;3.17;;;;;;;1.44;71.53;102114.16;5052954;28;20035;-75
2022/04/02 20:31:07;;;;;;;4.57;3.72;;;;;;;1.64;69.67;102119.63;5052399;28;20397;-79
2022/04/02 20:36:54;;;;;;;6.30;3.28;;;;;;;1.60;70.41;102124.31;5052593;28;20071;-76
2022/04/02 20:39:19;;;;;;;6.18;3.30;;;;;;;1.55;70.11;102129.97;5052161;28;20473;-75
2022/04/02 20:45:08;;;;;;;5.40;2.50;;;;;;;1.58;69.41;102146.50;5053221;28;20040;-78
2022/04/02 20:50:57;;;;;;;4.10;2.75;;;;;;;1.41;69.67;102142.56;5052351;28;20056;-77
2022/04/02 20:56:45;;;;;;;4.60;2.30;;;;;;;1.25;68.92;102137.69;5052079;28;20083;-76
2022/04/02 21:02:32;;;;;;;5.38;2.70;;;;;;;1.11;69.59;102135.28;5052131;28;20048;-77
2022/04/02 21:08:19;;;;;;;6.03;2.50;;;;;;;0.90;70.72;102145.72;5052174;28;20136;-77
2022/04/02 21:14:06;;;;;;;8.80;2.60;;;;;;;0.81;71.04;102154.31;5051878;28;20122;-77
2022/04/02 21:16:32;;;;;;;5.47;2.83;;;;;;;0.65;71.80;102152.03;5033782;28;20064;-77
2022/04/02 21:18:58;;;;;;;4.97;2.60;;;;;;;0.56;72.69;102164.06;5050815;28;20078;-76
2022/04/02 21:24:45;;;;;;;5.10;2.95;;;;;;;0.37;73.74;102166.44;5051690;28;20417;-77
2022/04/02 21:30:32;;;;;;;4.68;2.60;;;;;;;0.24;74.66;102163.88;5050617;28;20091;-76
2022/04/02 21:36:19;;;;;;;7.07;3.00;;;;;;;0.15;76.07;102180.34;5051668;28;20079;-75
2022/04/02 21:38:44;;;;;;;5.43;3.53;;;;;;;0.04;76.31;102164.53;5033395;28;20052;-78
2022/04/02 21:44:31;;;;;;;4.82;3.50;;;;;;;-0.05;76.10;102176.53;5051878;28;20051;-78
2022/04/02 21:50:19;;;;;;;5.13;2.80;;;;;;;-0.14;76.76;102187.72;5051321;28;20047;-78
2022/04/02 21:56:06;;;;;;;6.35;2.92;;;;;;;-0.24;77.06;102184.09;5051725;28;20052;-76
2022/04/02 22:01:56;;;;;;;5.18;2.90;;;;;;;-0.31;77.19;102191.56;5051396;28;20056;-76
2022/04/02 22:07:45;;;;;;;5.05;3.03;;;;;;;-0.37;77.26;102181.50;5051252;28;20048;-76
2022/04/02 22:13:32;;;;;;;5.30;3.17;;;;;;;-0.48;78.54;102191.09;5050675;28;20119;-76
2022/04/02 22:19:19;;;;;;;4.13;2.97;;;;;;;-0.53;78.71;102199.31;5051440;28;20052;-76
2022/04/02 22:25:06;;;;;;;9.32;3.67;;;;;;;-0.66;79.95;102188.81;5051423;28;20133;-77
2022/04/02 22:30:53;;;;;;;5.50;3.10;;;;;;;-0.72;80.78;102193.66;5051366;28;20128;-77
2022/04/02 22:36:42;;;;;;;6.07;3.25;;;;;;;-0.69;80.48;102196.91;5051257;28;20052;-78
2022/04/02 22:42:29;;;;;;;5.68;3.20;;;;;;;-0.84;81.53;102210.28;5050901;28;20504;-76
2022/04/02 22:48:16;;;;;;;5.57;3.25;;;;;;;-0.94;82.29;102213.53;5051018;28;20051;-76
2022/04/02 22:50:41;;;;;;;5.47;3.15;;;;;;;-0.99;83.50;102205.13;5032370;28;20044;-78
2022/04/02 22:53:07;;;;;;;6.05;2.92;;;;;;;-1.00;82.88;102208.69;5033094;28;20028;-77
2022/04/02 23:02:16;;;;;;;5.95;3.13;;;;;;;-1.09;83.28;102219.84;5050869;28;20051;-76
2022/04/02 23:04:41;;;;;;;8.75;3.55;;;;;;;-1.11;82.94;102218.25;5032843;28;20025;-77
2022/04/02 23:10:28;;;;;;;5.80;3.15;;;;;;;-1.22;84.07;102220.75;5050522;28;20037;-76
2022/04/02 23:12:53;;;;;;;9.57;3.40;;;;;;;-1.16;84.24;102234.28;5032163;28;20385;-76
2022/04/02 23:15:19;;;;;;;6.90;3.78;;;;;;;-1.20;84.88;102243.31;5032232;28;20098;-76
2022/04/02 23:21:08;;;;;;;5.25;4.05;;;;;;;-1.27;85.08;102240.28;5053924;28;20515;-76
2022/04/02 23:23:33;;;;;;;4.88;3.03;;;;;;;-1.33;85.97;102234.59;5035582;28;20052;-76
2022/04/02 23:25:59;;;;;;;4.95;3.55;;;;;;;-1.40;85.59;102231.56;5052826;28;20092;-74
2022/04/02 23:31:46;;;;;;;4.95;3.53;;;;;;;-1.46;86.65;102226.69;5053408;28;20052;-75
2022/04/02 23:37:33;;;;;;;5.35;3.65;;;;;;;-1.37;86.44;102228.72;5053594;28;20055;-75
2022/04/02 23:43:21;;;;;;;5.35;3.38;;;;;;;-1.42;86.62;102235.22;5053581;28;20044;-75
2022/04/02 23:45:46;;;;;;;6.05;3.80;;;;;;;-1.50;86.55;102219.13;5053236;28;20037;-75
2022/04/02 23:48:14;;;;;;;5.30;3.58;;;;;;;-1.53;86.87;102232.44;5034680;28;20033;-75
2022/04/02 23:50:40;;;;;;;4.95;3.25;;;;;;;-1.58;87.32;102232.75;5035285;28;20050;-75
2022/04/02 23:53:07;;;;;;;5.95;3.85;;;;;;;-1.68;87.65;102235.16;5052444;28;20120;-75
2022/04/02 23:58:56;;;;;;;7.38;3.65;;;;;;;-1.80;88.76;102222.00;5053316;28;20043;-75
